Time;durP1;ratioP1;P1;durP2;ratioP2;P2;SDS_P1;SDS_P2;PMS_P1;PMS_P2;Temp;Humidity;BMP_temperature;BMP_pressure;BME280_temperature;BME280_humidity;BME280_pressure;Samples;Min_cycle;Max_cycle;Signal;HPM_P1;HPM_P2
2023/12/07 00:01:44;;;;;;;10.90;6.10;;;;;;;-2.47;100.00;101194.03;109276;1253;59011;-53
2023/12/07 00:04:12;;;;;;;8.30;4.90;;;;;;;-2.50;100.00;101189.76;109279;1253;59198;-53
2023/12/07 00:06:40;;;;;;;9.60;6.20;;;;;;;-2.50;100.00;101196.55;109263;1253;75671;-53
2023/12/07 00:09:07;;;;;;;8.00;5.00;;;;;;;-2.49;100.00;101200.27;109341;1252;66462;-53
2023/12/07 00:11:35;;;;;;;8.30;5.60;;;;;;;-2.48;100.00;101202.29;109301;1254;72781;-53
2023/12/07 00:14:02;;;;;;;8.40;5.00;;;;;;;-2.50;100.00;101195.88;109281;1254;59816;-56
2023/12/07 00:16:30;;;;;;;8.20;4.30;;;;;;;-2.50;100.00;101202.02;109299;1253;60779;-54
2023/12/07 00:18:58;;;;;;;8.90;4.90;;;;;;;-2.50;100.00;101193.16;109323;1253;74845;-53
2023/12/07 00:21:26;;;;;;;7.90;4.90;;;;;;;-2.50;100.00;101200.63;109331;1254;65866;-53
2023/12/07 00:23:53;;;;;;;6.80;4.30;;;;;;;-2.50;100.00;101202.85;109328;1253;71426;-53
2023/12/07 00:26:21;;;;;;;7.90;4.80;;;;;;;-2.49;100.00;101205.36;109257;1255;60962;-53
2023/12/07 00:28:48;;;;;;;7.40;4.90;;;;;;;-2.48;100.00;101209.73;109307;1254;59228;-53
2023/12/07 00:31:16;;;;;;;7.80;4.40;;;;;;;-2.47;100.00;101209.67;109323;1254;73481;-53
2023/12/07 00:33:45;;;;;;;8.60;4.90;;;;;;;-2.45;100.00;101209.78;109360;1254;67124;-55
2023/12/07 00:36:13;;;;;;;7.90;4.70;;;;;;;-2.44;100.00;101205.64;109266;1254;72737;-55
2023/12/07 00:38:41;;;;;;;7.40;4.50;;;;;;;-2.46;100.00;101200.94;109366;1253;59664;-54
2023/12/07 00:41:09;;;;;;;7.30;4.10;;;;;;;-2.47;100.00;101204.74;109328;1253;60265;-53
2023/12/07 00:43:36;;;;;;;7.50;4.50;;;;;;;-2.47;100.00;101201.17;109350;1254;74897;-54
2023/12/07 00:46:07;;;;;;;6.90;4.00;;;;;;;-2.48;100.00;101199.35;109257;1254;67017;-55
2023/12/07 00:48:35;;;;;;;7.20;3.90;;;;;;;-2.49;100.00;101197.38;109295;1253;72737;-54
2023/12/07 00:51:03;;;;;;;9.10;5.30;;;;;;;-2.51;100.00;101192.55;109311;1254;60952;-53
2023/12/07 00:53:30;;;;;;;7.90;4.90;;;;;;;-2.52;100.00;101189.19;109328;1253;60259;-52
2023/12/07 00:55:58;;;;;;;8.70;5.00;;;;;;;-2.52;100.00;101186.27;109277;1255;74734;-58
2023/12/07 00:58:27;;;;;;;8.90;4.60;;;;;;;-2.52;100.00;101188.52;109281;1253;66904;-54
2023/12/07 01:00:55;;;;;;;7.20;4.60;;;;;;;-2.54;100.00;101186.40;109297;1254;71798;-53
2023/12/07 01:03:23;;;;;;;8.60;4.60;;;;;;;-2.55;100.00;101190.52;109307;1253;60973;-54
2023/12/07 01:05:50;;;;;;;7.70;4.60;;;;;;;-2.55;100.00;101187.29;109290;1254;58990;-55
2023/12/07 01:08:18;;;;;;;6.70;3.80;;;;;;;-2.56;100.00;101185.13;109271;1257;77060;-54
2023/12/07 01:10:46;;;;;;;7.90;4.30;;;;;;;-2.58;100.00;101186.73;109458;1253;67014;-55
2023/12/07 01:13:13;;;;;;;5.60;3.60;;;;;;;-2.57;100.00;101186.91;109330;1253;71816;-53
2023/12/07 01:15:41;;;;;;;6.20;3.70;;;;;;;-2.59;100.00;101190.35;109266;1253;59677;-53
2023/12/07 01:18:09;;;;;;;6.80;3.80;;;;;;;-2.59;100.00;101193.98;109281;1253;60118;-53
2023/12/07 01:20:36;;;;;;;5.90;3.70;;;;;;;-2.63;100.00;101194.02;109322;1253;74007;-53
2023/12/07 01:23:04;;;;;;;7.90;4.50;;;;;;;-2.65;100.00;101189.83;109300;1253;66967;-54
2023/12/07 01:25:31;;;;;;;11.30;5.00;;;;;;;-2.66;100.00;101188.02;109307;1253;72921;-53
2023/12/07 01:27:59;;;;;;;12.70;5.20;;;;;;;-2.67;100.00;101181.43;109267;1253;59818;-56
2023/12/07 01:30:27;;;;;;;11.10;5.30;;;;;;;-2.69;100.00;101179.80;109277;1254;59219;-53
2023/12/07 01:32:55;;;;;;;8.80;4.90;;;;;;;-2.71;100.00;101177.67;109327;1253;74751;-53
2023/12/07 01:35:23;;;;;;;9.60;5.80;;;;;;;-2.73;100.00;101177.78;109341;1253;66978;-54
2023/12/07 01:37:50;;;;;;;11.30;5.40;;;;;;;-2.74;100.00;101174.41;109367;1254;72738;-53
2023/12/07 01:40:18;;;;;;;8.80;5.10;;;;;;;-2.74;100.00;101173.77;109337;1254;59005;-57
2023/12/07 01:42:52;;;;;;;9.60;4.60;;;;;;;-2.76;100.00;101169.59;109392;1253;60092;-54
2023/12/07 01:45:20;;;;;;;9.10;4.50;;;;;;;-2.77;100.00;101172.54;109336;1254;73547;-53
2023/12/07 01:47:49;;;;;;;7.50;5.00;;;;;;;-2.77;100.00;101170.34;109325;1253;65658;-53
2023/12/07 01:50:17;;;;;;;7.10;4.20;;;;;;;-2.77;100.00;101166.57;109114;1253;73301;-54
2023/12/07 01:52:46;;;;;;;7.70;4.30;;;;;;;-2.77;100.00;101174.58;109194;1254;59431;-54
2023/12/07 01:55:14;;;;;;;7.90;4.50;;;;;;;-2.79;100.00;101175.21;109293;1253;59011;-53
2023/12/07 01:57:43;;;;;;;9.90;4.90;;;;;;;-2.82;100.00;101175.00;109376;1254;74758;-54
2023/12/07 02:00:12;;;;;;;7.20;4.50;;;;;;;-2.84;100.00;101171.01;109289;1254;65904;-54
2023/12/07 02:02:40;;;;;;;8.70;4.80;;;;;;;-2.85;100.00;101170.88;109270;1254;72193;-53
2023/12/07 02:05:08;;;;;;;10.70;5.40;;;;;;;-2.85;100.00;101180.76;109135;1254;59740;-54
2023/12/07 02:07:35;;;;;;;7.90;5.10;;;;;;;-2.87;100.00;101181.19;109334;1253;59340;-53
2023/12/07 02:10:03;;;;;;;10.90;6.00;;;;;;;-2.88;100.00;101181.41;109255;1254;73462;-57
2023/12/07 02:12:31;;;;;;;10.50;5.50;;;;;;;-2.88;100.00;101177.66;109447;1253;66089;-59
2023/12/07 02:15:00;;;;;;;11.50;6.30;;;;;;;-2.87;100.00;101183.44;109411;1253;71444;-53
2023/12/07 02:17:57;;;;;;;8.80;5.90;;;;;;;-2.88;100.00;101178.36;109296;1253;60916;-54
2023/12/07 02:20:32;;;;;;;9.80;5.50;;;;;;;-2.87;100.00;101185.14;109251;1254;59444;-54
2023/12/07 02:23:01;;;;;;;10.20;5.60;;;;;;;-2.89;100.00;101182.81;109218;1253;74632;-53
2023/12/07 02:25:37;;;;;;;9.60;5.50;;;;;;;-2.87;100.00;101178.81;109338;1254;66841;-53
2023/12/07 02:28:05;;;;;;;10.20;5.60;;;;;;;-2.87;100.00;101180.36;109293;1254;71450;-54
2023/12/07 02:30:33;;;;;;;7.60;5.30;;;;;;;-2.87;100.00;101187.67;109334;1254;60958;-53
2023/12/07 02:33:00;;;;;;;10.40;6.20;;;;;;;-2.88;100.00;101192.30;109333;1253;58952;-54
2023/12/07 02:35:29;;;;;;;8.50;5.30;;;;;;;-2.87;100.00;101194.98;109344;1254;74770;-53
2023/12/07 02:37:56;;;;;;;8.80;5.70;;;;;;;-2.84;100.00;101197.88;109311;1254;67036;-58
2023/12/07 02:40:25;;;;;;;8.10;5.00;;;;;;;-2.82;100.00;101203.55;109337;1254;72874;-54
2023/12/07 02:42:53;;;;;;;8.90;5.30;;;;;;;-2.80;100.00;101213.37;109351;1253;59391;-53
2023/12/07 02:45:21;;;;;;;8.40;5.00;;;;;;;-2.80;100.00;101213.88;109182;1253;59159;-53
2023/12/07 02:47:48;;;;;;;6.90;4.40;;;;;;;-2.79;100.00;101211.11;109324;1254;73388;-55
2023/12/07 02:50:16;;;;;;;7.50;4.50;;;;;;;-2.78;100.00;101207.48;109320;1254;66985;-54
2023/12/07 02:52:44;;;;;;;8.50;5.00;;;;;;;-2.77;100.00;101204.02;109455;1253;70902;-53
2023/12/07 02:55:11;;;;;;;7.50;4.40;;;;;;;-2.76;100.00;101204.96;109339;1254;59395;-53
2023/12/07 02:57:39;;;;;;;7.10;4.70;;;;;;;-2.75;100.00;101204.41;109337;1254;60090;-53
2023/12/07 03:00:07;;;;;;;8.50;5.00;;;;;;;-2.75;100.00;101205.76;109295;1253;74678;-54
2023/12/07 03:02:39;;;;;;;7.90;4.70;;;;;;;-2.72;100.00;101209.91;109391;1254;66836;-54
2023/12/07 03:05:06;;;;;;;8.40;4.20;;;;;;;-2.69;100.00;101217.27;109342;1254;72702;-54
2023/12/07 03:07:34;;;;;;;7.00;4.30;;;;;;;-2.68;100.00;101216.89;109327;1253;59554;-54
2023/12/07 03:10:02;;;;;;;8.20;4.80;;;;;;;-2.67;100.00;101216.30;109316;1252;59487;-54
2023/12/07 03:12:31;;;;;;;8.70;4.90;;;;;;;-2.64;100.00;101217.55;109378;1253;76975;-53
2023/12/07 03:14:58;;;;;;;10.60;5.20;;;;;;;-2.64;100.00;101221.43;109362;1253;67085;-54
2023/12/07 03:17:26;;;;;;;7.20;4.90;;;;;;;-2.63;100.00;101219.67;109332;1253;71397;-54
2023/12/07 03:19:53;;;;;;;6.20;4.10;;;;;;;-2.61;100.00;101224.02;109323;1253;60935;-53
2023/12/07 03:22:21;;;;;;;8.40;5.50;;;;;;;-2.60;100.00;101236.20;109364;1253;60129;-59
2023/12/07 03:24:51;;;;;;;7.00;4.30;;;;;;;-2.62;100.00;101237.84;109357;1253;74781;-53
2023/12/07 03:27:19;;;;;;;6.80;4.50;;;;;;;-2.60;100.00;101235.16;109328;1252;67445;-54
2023/12/07 03:29:47;;;;;;;8.10;4.80;;;;;;;-2.59;100.00;101235.83;109324;1253;72708;-54
2023/12/07 03:32:14;;;;;;;8.90;5.20;;;;;;;-2.57;100.00;101235.73;109284;1254;59696;-57
2023/12/07 03:34:42;;;;;;;9.60;5.70;;;;;;;-2.55;100.00;101235.98;109409;1253;60128;-54
2023/12/07 03:37:09;;;;;;;9.10;6.20;;;;;;;-2.54;100.00;101237.27;109360;1253;73805;-54
2023/12/07 03:39:37;;;;;;;8.00;4.40;;;;;;;-2.52;100.00;101243.45;109364;1253;67131;-53
2023/12/07 03:42:05;;;;;;;8.70;5.10;;;;;;;-2.50;100.00;101250.02;109223;1253;70995;-53
2023/12/07 03:44:52;;;;;;;8.30;4.80;;;;;;;-2.50;100.00;101243.88;109292;1254;60964;-53
2023/12/07 03:47:20;;;;;;;7.60;4.80;;;;;;;-2.49;100.00;101253.70;109313;1252;59001;-54
2023/12/07 03:49:47;;;;;;;7.90;4.60;;;;;;;-2.48;100.00;101251.76;109306;1253;74102;-57
2023/12/07 03:52:15;;;;;;;8.20;4.70;;;;;;;-2.47;100.00;101251.04;109446;1253;67420;-54
2023/12/07 03:54:43;;;;;;;8.70;5.60;;;;;;;-2.47;100.00;101250.35;109273;1253;72648;-53
2023/12/07 03:57:11;;;;;;;6.80;4.40;;;;;;;-2.46;100.00;101246.06;109324;1253;59688;-54
2023/12/07 03:59:38;;;;;;;8.40;4.90;;;;;;;-2.45;100.00;101249.23;109338;1253;60113;-53
2023/12/07 04:02:06;;;;;;;6.90;4.30;;;;;;;-2.43;100.00;101248.48;109276;1253;73498;-54
2023/12/07 04:04:34;;;;;;;7.80;5.00;;;;;;;-2.41;100.00;101243.95;109323;1253;65682;-53
2023/12/07 04:07:01;;;;;;;8.50;5.20;;;;;;;-2.40;100.00;101241.18;109351;1253;71531;-54
2023/12/07 04:09:30;;;;;;;8.10;4.90;;;;;;;-2.39;100.00;101234.35;109316;1253;61122;-54
2023/12/07 04:11:58;;;;;;;9.00;5.10;;;;;;;-2.39;100.00;101245.38;109274;1253;60396;-54
2023/12/07 04:14:25;;;;;;;8.90;5.00;;;;;;;-2.37;100.00;101238.66;109336;1254;74738;-54
2023/12/07 04:16:53;;;;;;;7.90;4.90;;;;;;;-2.39;100.00;101239.41;109334;1253;67268;-54
2023/12/07 04:19:21;;;;;;;8.90;5.30;;;;;;;-2.38;100.00;101240.23;109399;1252;71234;-53
2023/12/07 04:21:48;;;;;;;8.10;4.90;;;;;;;-2.36;100.00;101246.77;109315;1253;60938;-56
2023/12/07 04:24:16;;;;;;;6.90;4.70;;;;;;;-2.35;100.00;101246.58;109320;1253;59333;-53
2023/12/07 04:26:44;;;;;;;7.10;4.30;;;;;;;-2.34;100.00;101243.63;109341;1253;74882;-54
2023/12/07 04:29:11;;;;;;;7.80;4.90;;;;;;;-2.34;100.00;101249.20;109318;1253;65689;-54
2023/12/07 04:31:39;;;;;;;9.80;5.20;;;;;;;-2.33;100.00;101251.36;109233;1253;71480;-54
2023/12/07 04:34:06;;;;;;;8.00;4.70;;;;;;;-2.32;100.00;101252.84;109217;1253;60959;-53
2023/12/07 04:36:35;;;;;;;7.80;5.10;;;;;;;-2.32;100.00;101257.95;109281;1253;58913;-56
2023/12/07 04:39:03;;;;;;;7.00;4.60;;;;;;;-2.31;100.00;101259.62;109338;1253;74724;-56
2023/12/07 04:41:30;;;;;;;8.50;5.10;;;;;;;-2.30;100.00;101258.02;109288;1253;67057;-53
2023/12/07 04:43:58;;;;;;;7.50;5.00;;;;;;;-2.29;100.00;101262.42;109448;1253;71863;-54
2023/12/07 04:46:26;;;;;;;7.10;4.20;;;;;;;-2.30;100.00;101256.67;109260;1253;61519;-54
2023/12/07 04:48:53;;;;;;;7.90;4.80;;;;;;;-2.28;100.00;101255.39;109313;1253;59590;-54
2023/12/07 04:51:21;;;;;;;9.20;5.10;;;;;;;-2.27;100.00;101252.64;109324;1253;74771;-54
2023/12/07 04:53:50;;;;;;;8.00;4.80;;;;;;;-2.26;100.00;101261.27;109306;1253;66997;-54
2023/12/07 04:56:18;;;;;;;7.60;4.80;;;;;;;-2.26;100.00;101263.63;109269;1253;71714;-57
2023/12/07 04:58:46;;;;;;;8.40;4.70;;;;;;;-2.25;100.00;101266.84;109343;1253;59563;-53
2023/12/07 05:01:13;;;;;;;7.90;4.40;;;;;;;-2.25;100.00;101266.79;109310;1253;60138;-53
2023/12/07 05:03:41;;;;;;;7.30;4.80;;;;;;;-2.24;100.00;101270.86;109338;1253;74819;-53
2023/12/07 05:06:08;;;;;;;8.60;5.70;;;;;;;-2.24;100.00;101272.73;109352;1253;66281;-53
2023/12/07 05:08:36;;;;;;;8.60;5.30;;;;;;;-2.23;100.00;101275.59;109249;1253;71428;-54
2023/12/07 05:11:04;;;;;;;7.40;4.40;;;;;;;-2.22;100.00;101277.77;109313;1253;61139;-53
2023/12/07 05:13:33;;;;;;;8.60;5.30;;;;;;;-2.23;100.00;101280.69;109295;1253;60127;-54
2023/12/07 05:16:01;;;;;;;8.90;4.90;;;;;;;-2.23;100.00;101274.05;109344;1253;74733;-54
2023/12/07 05:18:29;;;;;;;8.90;4.80;;;;;;;-2.22;100.00;101277.77;109355;1253;65676;-57
2023/12/07 05:20:56;;;;;;;9.50;6.20;;;;;;;-2.22;100.00;101271.77;109379;1253;72702;-56
2023/12/07 05:23:24;;;;;;;9.00;5.40;;;;;;;-2.21;100.00;101278.69;109205;1252;60121;-56
2023/12/07 05:25:52;;;;;;;8.30;5.50;;;;;;;-2.20;100.00;101276.61;109294;1254;58905;-56
2023/12/07 05:28:19;;;;;;;7.80;4.90;;;;;;;-2.19;100.00;101276.11;109325;1253;74715;-56
2023/12/07 05:30:47;;;;;;;9.60;5.30;;;;;;;-2.19;100.00;101280.36;109335;1253;66241;-57
2023/12/07 05:33:15;;;;;;;8.10;5.50;;;;;;;-2.19;100.00;101281.17;109359;1254;72789;-55
2023/12/07 05:35:43;;;;;;;9.00;5.20;;;;;;;-2.18;100.00;101285.74;109309;1253;59343;-56
2023/12/07 05:38:11;;;;;;;8.50;4.70;;;;;;;-2.17;100.00;101278.05;109322;1253;59077;-54
2023/12/07 05:40:38;;;;;;;7.40;4.80;;;;;;;-2.17;100.00;101279.19;109307;1253;74756;-58
2023/12/07 05:43:07;;;;;;;8.50;4.60;;;;;;;-2.17;100.00;101277.98;109354;1253;65552;-53
2023/12/07 05:45:35;;;;;;;9.00;5.50;;;;;;;-2.15;100.00;101275.55;109315;1253;72925;-54
2023/12/07 05:48:03;;;;;;;9.40;6.00;;;;;;;-2.15;100.00;101282.36;109319;1253;59838;-54
2023/12/07 05:50:30;;;;;;;10.20;5.70;;;;;;;-2.15;100.00;101279.79;109324;1253;60162;-57
2023/12/07 05:52:59;;;;;;;7.30;5.00;;;;;;;-2.14;100.00;101285.36;109297;1253;74687;-54
2023/12/07 05:55:27;;;;;;;8.10;5.30;;;;;;;-2.12;100.00;101293.95;109373;1252;66935;-53
2023/12/07 05:57:54;;;;;;;7.60;4.40;;;;;;;-2.11;100.00;101296.45;109329;1253;72713;-54
2023/12/07 06:00:22;;;;;;;10.00;5.70;;;;;;;-2.11;100.00;101285.75;109361;1253;58967;-54
2023/12/07 06:02:50;;;;;;;10.50;6.10;;;;;;;-2.10;100.00;101292.13;109276;1254;60035;-54
2023/12/07 06:05:17;;;;;;;9.90;5.10;;;;;;;-2.09;100.00;101289.40;109346;1253;73487;-54
2023/12/07 06:07:45;;;;;;;8.20;4.90;;;;;;;-2.10;100.00;101287.92;109316;1253;65483;-54
2023/12/07 06:10:13;;;;;;;9.50;4.90;;;;;;;-2.10;100.00;101285.81;109313;1253;72711;-55
2023/12/07 06:12:41;;;;;;;8.80;5.50;;;;;;;-2.08;100.00;101285.77;109259;1254;59365;-55
2023/12/07 06:15:09;;;;;;;7.70;4.90;;;;;;;-2.09;100.00;101286.80;109348;1253;59692;-54
2023/12/07 06:17:37;;;;;;;7.00;4.60;;;;;;;-2.09;100.00;101291.91;109329;1253;74696;-54
2023/12/07 06:20:05;;;;;;;7.60;4.80;;;;;;;-2.08;100.00;101284.91;109279;1253;65644;-53
2023/12/07 06:22:33;;;;;;;8.90;5.50;;;;;;;-2.07;100.00;101284.69;109344;1253;72639;-54
2023/12/07 06:25:00;;;;;;;8.90;5.10;;;;;;;-2.05;100.00;101286.27;109305;1253;59453;-54
2023/12/07 06:27:28;;;;;;;8.80;5.50;;;;;;;-2.04;100.00;101288.61;109328;1253;60184;-54
2023/12/07 06:29:56;;;;;;;7.60;4.90;;;;;;;-2.03;100.00;101292.80;109370;1252;74761;-54
2023/12/07 06:32:24;;;;;;;7.80;5.00;;;;;;;-2.04;100.00;101289.11;109396;1253;65705;-55
2023/12/07 06:34:52;;;;;;;7.60;4.50;;;;;;;-2.02;100.00;101290.38;109331;1252;71996;-54
2023/12/07 06:37:20;;;;;;;8.10;4.90;;;;;;;-2.01;100.00;101292.55;109289;1253;59637;-54
2023/12/07 06:39:48;;;;;;;7.90;4.80;;;;;;;-2.01;100.00;101297.48;109361;1253;60099;-54
2023/12/07 06:42:16;;;;;;;8.70;4.90;;;;;;;-2.02;100.00;101299.39;109351;1253;74754;-55
2023/12/07 06:44:48;;;;;;;8.20;4.50;;;;;;;-2.02;100.00;101301.95;109345;1253;66968;-54
2023/12/07 06:47:16;;;;;;;8.40;4.80;;;;;;;-2.01;100.00;101305.65;109280;1253;71414;-54
2023/12/07 06:49:44;;;;;;;8.90;5.10;;;;;;;-2.01;100.00;101304.29;109342;1253;60946;-54
2023/12/07 06:52:19;;;;;;;10.50;6.60;;;;;;;-2.01;100.00;101299.52;109351;1252;60239;-54
2023/12/07 06:54:47;;;;;;;11.00;5.20;;;;;;;-2.00;100.00;101300.52;109369;1252;74750;-54
2023/12/07 06:57:15;;;;;;;9.80;5.90;;;;;;;-1.99;100.00;101300.80;109315;1254;66917;-57
2023/12/07 06:59:42;;;;;;;7.30;4.40;;;;;;;-2.01;100.00;101300.88;109321;1253;71461;-55
2023/12/07 07:02:10;;;;;;;9.80;5.80;;;;;;;-2.01;100.00;101296.29;109343;1252;60950;-54
2023/12/07 07:04:38;;;;;;;8.00;5.00;;;;;;;-2.01;100.00;101297.82;109349;1252;60202;-54
2023/12/07 07:07:05;;;;;;;10.20;6.50;;;;;;;-2.01;100.00;101290.66;109328;1252;73456;-54
2023/12/07 07:09:33;;;;;;;8.90;5.70;;;;;;;-2.00;100.00;101298.28;109295;1252;67768;-54
2023/12/07 07:12:01;;;;;;;8.70;4.90;;;;;;;-1.98;100.00;101299.56;109369;1253;72709;-54
2023/12/07 07:14:28;;;;;;;7.60;4.50;;;;;;;-1.95;100.00;101305.85;109352;1253;59666;-54
2023/12/07 07:16:56;;;;;;;8.90;5.90;;;;;;;-1.94;100.00;101303.09;109370;1253;60097;-54
2023/12/07 07:19:23;;;;;;;10.00;6.10;;;;;;;-1.93;100.00;101302.52;109295;1252;73434;-54
2023/12/07 07:21:51;;;;;;;9.90;6.40;;;;;;;-1.92;100.00;101312.02;109324;1252;66034;-54
2023/12/07 07:24:19;;;;;;;11.00;5.40;;;;;;;-1.91;100.00;101315.55;109312;1253;74763;-54
2023/12/07 07:26:46;;;;;;;10.40;5.70;;;;;;;-1.91;100.00;101304.83;109265;1253;60701;-56
2023/12/07 07:29:14;;;;;;;9.50;5.00;;;;;;;-1.90;100.00;101308.35;109323;1253;60096;-54
2023/12/07 07:31:42;;;;;;;8.40;5.20;;;;;;;-1.91;100.00;101305.48;109259;1253;73407;-54
2023/12/07 07:34:09;;;;;;;9.30;5.20;;;;;;;-1.91;100.00;101310.42;109305;1253;66942;-54
2023/12/07 07:36:37;;;;;;;8.20;4.30;;;;;;;-1.91;100.00;101309.10;109353;1253;70441;-55
2023/12/07 07:39:07;;;;;;;6.60;3.70;;;;;;;-1.91;100.00;101304.48;109262;1253;59678;-55
2023/12/07 07:41:36;;;;;;;8.80;4.90;;;;;;;-1.91;100.00;101308.94;109261;1253;59302;-55
2023/12/07 07:44:03;;;;;;;9.10;5.00;;;;;;;-1.91;100.00;101302.59;109314;1253;75279;-54
2023/12/07 07:46:31;;;;;;;9.10;5.30;;;;;;;-1.90;100.00;101302.55;109412;1253;65998;-54
2023/12/07 07:48:59;;;;;;;11.10;5.30;;;;;;;-1.89;100.00;101311.00;109407;1253;72820;-54
2023/12/07 07:51:27;;;;;;;9.60;4.60;;;;;;;-1.86;100.00;101306.95;109387;1252;60036;-54
2023/12/07 07:53:55;;;;;;;8.10;5.30;;;;;;;-1.84;100.00;101308.36;109366;1253;60066;-54
2023/12/07 07:56:25;;;;;;;8.30;5.10;;;;;;;-1.84;100.00;101316.23;109288;1253;74862;-54
2023/12/07 07:58:53;;;;;;;6.90;4.20;;;;;;;-1.85;100.00;101315.27;109442;1252;65643;-55
2023/12/07 08:01:21;;;;;;;7.70;5.00;;;;;;;-1.85;100.00;101306.70;109369;1253;72819;-54
2023/12/07 08:03:49;;;;;;;8.00;5.40;;;;;;;-1.82;100.00;101305.20;109304;1253;58958;-58
2023/12/07 08:06:16;;;;;;;9.10;5.30;;;;;;;-1.80;100.00;101308.66;109397;1253;59244;-54
2023/12/07 08:08:44;;;;;;;9.30;5.30;;;;;;;-1.79;100.00;101309.80;109422;1252;74770;-53
2023/12/07 08:11:14;;;;;;;8.10;5.00;;;;;;;-1.78;100.00;101308.23;109432;1252;66959;-54
2023/12/07 08:13:42;;;;;;;8.30;5.00;;;;;;;-1.75;100.00;101313.19;109379;1253;72772;-58
2023/12/07 08:16:09;;;;;;;8.30;5.50;;;;;;;-1.73;100.00;101304.23;109385;1252;60640;-53
2023/12/07 08:18:37;;;;;;;8.90;5.00;;;;;;;-1.71;100.00;101306.67;109434;1251;60386;-55
2023/12/07 08:21:08;;;;;;;8.70;5.10;;;;;;;-1.67;100.00;101303.79;109414;1252;73452;-54
2023/12/07 08:23:36;;;;;;;8.70;4.60;;;;;;;-1.64;100.00;101304.66;109403;1253;67442;-54
2023/12/07 08:26:03;;;;;;;8.50;4.80;;;;;;;-1.63;100.00;101301.89;109401;1253;71397;-57
2023/12/07 08:28:31;;;;;;;8.10;5.20;;;;;;;-1.61;100.00;101294.41;109411;1253;58928;-54
2023/12/07 08:30:59;;;;;;;7.60;5.00;;;;;;;-1.59;100.00;101301.64;109423;1253;62320;-54
2023/12/07 08:33:26;;;;;;;9.30;5.10;;;;;;;-1.58;100.00;101291.88;109427;1253;76751;-54
2023/12/07 08:35:55;;;;;;;9.90;5.40;;;;;;;-1.66;100.00;101286.88;109403;1252;66937;-54
2023/12/07 08:38:23;;;;;;;8.00;5.10;;;;;;;-1.62;100.00;101284.75;109401;1253;72089;-54
2023/12/07 08:40:51;;;;;;;9.70;5.60;;;;;;;-1.58;100.00;101279.62;109371;1253;58968;-54
2023/12/07 08:43:21;;;;;;;8.70;5.60;;;;;;;-1.57;100.00;101279.39;109404;1252;60330;-54
2023/12/07 08:45:52;;;;;;;9.20;4.80;;;;;;;-1.56;100.00;101280.85;109422;1252;77260;-54
2023/12/07 08:48:27;;;;;;;9.80;4.50;;;;;;;-1.55;100.00;101279.46;109406;1252;67919;-55
2023/12/07 08:50:55;;;;;;;9.90;5.70;;;;;;;-1.54;100.00;101278.90;109389;1252;71206;-55
2023/12/07 08:53:23;;;;;;;7.90;5.10;;;;;;;-1.53;100.00;101273.89;109343;1253;62637;-55
2023/12/07 08:55:51;;;;;;;8.70;4.50;;;;;;;-1.51;100.00;101277.23;109356;1252;59304;-59
2023/12/07 08:58:18;;;;;;;7.80;4.50;;;;;;;-1.51;100.00;101279.92;109425;1253;74693;-55
2023/12/07 09:00:46;;;;;;;8.80;5.30;;;;;;;-1.50;100.00;101269.30;109409;1252;67027;-55
2023/12/07 09:03:14;;;;;;;8.60;5.30;;;;;;;-1.48;100.00;101266.11;109358;1253;74631;-55
2023/12/07 09:05:41;;;;;;;7.90;5.10;;;;;;;-1.45;100.00;101257.82;109352;1252;58987;-58
2023/12/07 09:08:09;;;;;;;10.80;5.10;;;;;;;-1.44;100.00;101258.06;109454;1253;60095;-55
2023/12/07 09:10:37;;;;;;;8.80;5.00;;;;;;;-1.42;100.00;101257.64;109308;1251;74680;-55
2023/12/07 09:13:05;;;;;;;8.50;5.20;;;;;;;-1.41;100.00;101264.04;109398;1251;68307;-55
2023/12/07 09:15:33;;;;;;;8.60;5.30;;;;;;;-1.41;100.00;101272.73;109385;1253;75968;-55
2023/12/07 09:18:01;;;;;;;10.50;5.40;;;;;;;-1.43;100.00;101263.30;109348;1253;60146;-56
2023/12/07 09:20:28;;;;;;;15.10;6.10;;;;;;;-1.44;100.00;101263.88;109424;1252;61117;-56
2023/12/07 09:22:57;;;;;;;8.90;5.80;;;;;;;-1.44;100.00;101267.45;109405;1252;77662;-54
2023/12/07 09:25:27;;;;;;;8.90;5.30;;;;;;;-1.43;100.00;101263.15;109305;1252;70231;-54
2023/12/07 09:27:56;;;;;;;15.50;9.50;;;;;;;-1.41;100.00;101272.58;109367;1251;71438;-55
2023/12/07 09:30:23;;;;;;;15.40;10.20;;;;;;;-1.41;100.00;101258.62;109357;1252;63403;-54
2023/12/07 09:32:51;;;;;;;9.10;5.90;;;;;;;-1.42;100.00;101261.58;109384;1252;60137;-55
2023/12/07 09:35:19;;;;;;;7.70;5.70;;;;;;;-1.41;100.00;101258.41;109452;1252;73751;-55
2023/12/07 09:37:48;;;;;;;10.50;6.20;;;;;;;-1.39;100.00;101258.02;109420;1253;66666;-56
2023/12/07 09:40:17;;;;;;;8.70;5.90;;;;;;;-1.39;100.00;101251.02;109376;1253;74842;-55
2023/12/07 09:42:49;;;;;;;11.80;6.00;;;;;;;-1.40;100.00;101251.73;109392;1253;62867;-56
2023/12/07 09:45:18;;;;;;;10.50;6.90;;;;;;;-1.38;100.00;101254.86;109421;1252;59978;-56
2023/12/07 09:47:48;;;;;;;11.80;6.80;;;;;;;-1.39;100.00;101252.02;109394;1253;77006;-57
2023/12/07 09:50:18;;;;;;;9.50;6.20;;;;;;;-1.37;100.00;101256.67;109386;1253;69168;-56
2023/12/07 09:52:47;;;;;;;8.90;6.20;;;;;;;-1.34;100.00;101260.13;109355;1253;71551;-56
2023/12/07 09:55:30;;;;;;;9.50;5.30;;;;;;;-1.32;100.00;101260.33;109340;1253;63162;-56
2023/12/07 09:57:59;;;;;;;8.80;6.20;;;;;;;-1.30;100.00;101257.00;109243;1252;62133;-55
2023/12/07 10:00:26;;;;;;;10.90;5.90;;;;;;;-1.32;100.00;101253.54;109385;1252;75497;-56
2023/12/07 10:02:54;;;;;;;8.70;5.50;;;;;;;-1.30;100.00;101253.39;109366;1252;65664;-56
2023/12/07 10:05:22;;;;;;;8.90;5.50;;;;;;;-1.28;100.00;101245.65;109371;1252;73838;-56
2023/12/07 10:07:50;;;;;;;9.70;6.10;;;;;;;-1.26;100.00;101254.23;109352;1253;61470;-60
2023/12/07 10:10:18;;;;;;;10.00;6.60;;;;;;;-1.25;100.00;101255.87;109419;1251;60038;-55
2023/12/07 10:12:47;;;;;;;9.80;5.50;;;;;;;-1.23;100.00;101264.42;109442;1251;72553;-55
2023/12/07 10:15:16;;;;;;;9.80;5.70;;;;;;;-1.19;100.00;101261.71;109426;1252;64753;-55
2023/12/07 10:17:44;;;;;;;11.30;6.90;;;;;;;-1.16;100.00;101266.14;109399;1252;72750;-59
2023/12/07 10:20:12;;;;;;;12.70;7.40;;;;;;;-1.14;100.00;101267.60;109377;1252;62112;-56
2023/12/07 10:22:41;;;;;;;11.20;7.30;;;;;;;-1.16;100.00;101265.79;109415;1252;59093;-56
2023/12/07 10:25:09;;;;;;;17.50;12.30;;;;;;;-1.16;100.00;101260.89;109384;1252;75554;-56
2023/12/07 10:27:40;;;;;;;13.00;8.40;;;;;;;-1.16;100.00;101268.88;109282;1253;68228;-55
2023/12/07 10:30:12;;;;;;;11.30;8.50;;;;;;;-1.18;100.00;101265.55;109304;1253;73825;-56
2023/12/07 10:32:40;;;;;;;10.60;6.50;;;;;;;-1.18;100.00;101261.84;109275;1253;58886;-55
2023/12/07 10:35:08;;;;;;;10.10;6.50;;;;;;;-1.18;100.00;101264.72;109448;1253;59015;-55
2023/12/07 10:37:36;;;;;;;14.00;9.80;;;;;;;-1.16;100.00;101265.83;109396;1252;77862;-56
2023/12/07 10:40:05;;;;;;;18.80;13.80;;;;;;;-1.14;100.00;101266.20;109354;1253;65662;-56
2023/12/07 10:42:35;;;;;;;11.10;6.90;;;;;;;-1.14;100.00;101263.46;109389;1252;73657;-56
2023/12/07 10:45:06;;;;;;;12.80;7.30;;;;;;;-1.15;100.00;101264.88;109419;1252;61288;-56
2023/12/07 10:47:38;;;;;;;11.70;7.80;;;;;;;-1.16;100.00;101273.12;109435;1252;63590;-56
2023/12/07 10:50:10;;;;;;;10.20;6.80;;;;;;;-1.17;100.00;101268.41;109384;1252;77779;-56
2023/12/07 10:52:51;;;;;;;11.80;7.30;;;;;;;-1.17;100.00;101272.02;109422;1252;69014;-56
2023/12/07 10:55:20;;;;;;;10.20;6.90;;;;;;;-1.19;100.00;101264.06;109375;1252;75708;-56
2023/12/07 10:57:48;;;;;;;9.30;6.20;;;;;;;-1.17;100.00;101264.51;109385;1253;59957;-56
2023/12/07 11:00:16;;;;;;;11.50;7.20;;;;;;;-1.18;100.00;101255.16;109270;1252;61524;-56
2023/12/07 11:02:47;;;;;;;9.00;5.20;;;;;;;-1.19;100.00;101259.99;109300;1252;75684;-55
2023/12/07 11:05:15;;;;;;;10.20;5.70;;;;;;;-1.22;100.00;101262.35;109371;1252;65745;-56
2023/12/07 11:07:46;;;;;;;9.60;6.00;;;;;;;-1.25;100.00;101262.14;109388;1253;74317;-58
2023/12/07 11:10:53;;;;;;;11.00;7.80;;;;;;;-1.26;100.00;101262.37;109410;1252;61562;-56
2023/12/07 11:13:25;;;;;;;10.30;6.30;;;;;;;-1.24;100.00;101257.69;109178;1251;62905;-54